sensor_id;sensor_type;location;lat;lon;timestamp;P1;durP1;ratioP1;P2;durP2;ratioP2
53961;SDS011;39868;53.398;6.564;2024-03-17T00:02:23;26.43;;;15.00;;
53961;SDS011;39868;53.398;6.564;2024-03-17T00:04:49;42.77;;;22.20;;
53961;SDS011;39868;53.398;6.564;2024-03-17T00:07:15;36.97;;;21.03;;
53961;SDS011;39868;53.398;6.564;2024-03-17T00:09:41;48.07;;;28.00;;
53961;SDS011;39868;53.398;6.564;2024-03-17T00:12:08;54.07;;;28.90;;
53961;SDS011;39868;53.398;6.564;2024-03-17T00:14:34;43.30;;;23.47;;
53961;SDS011;39868;53.398;6.564;2024-03-17T00:17:01;28.53;;;19.20;;
53961;SDS011;39868;53.398;6.564;2024-03-17T00:19:27;19.70;;;13.33;;
53961;SDS011;39868;53.398;6.564;2024-03-17T00:21:53;13.10;;;11.25;;
53961;SDS011;39868;53.398;6.564;2024-03-17T00:24:19;9.83;;;9.03;;
53961;SDS011;39868;53.398;6.564;2024-03-17T00:26:46;9.90;;;8.95;;
53961;SDS011;39868;53.398;6.564;2024-03-17T00:29:13;11.50;;;10.40;;
53961;SDS011;39868;53.398;6.564;2024-03-17T00:31:40;11.17;;;9.17;;
53961;SDS011;39868;53.398;6.564;2024-03-17T00:34:07;9.67;;;8.67;;
53961;SDS011;39868;53.398;6.564;2024-03-17T00:36:33;9.20;;;8.40;;
53961;SDS011;39868;53.398;6.564;2024-03-17T00:38:59;7.63;;;7.13;;
53961;SDS011;39868;53.398;6.564;2024-03-17T00:41:26;7.80;;;7.40;;
53961;SDS011;39868;53.398;6.564;2024-03-17T00:43:52;8.87;;;8.27;;
53961;SDS011;39868;53.398;6.564;2024-03-17T00:46:21;8.30;;;7.80;;
53961;SDS011;39868;53.398;6.564;2024-03-17T00:48:48;8.03;;;7.43;;
53961;SDS011;39868;53.398;6.564;2024-03-17T00:51:15;8.50;;;7.80;;
53961;SDS011;39868;53.398;6.564;2024-03-17T00:53:41;9.63;;;8.73;;
53961;SDS011;39868;53.398;6.564;2024-03-17T00:56:08;11.57;;;9.43;;
53961;SDS011;39868;53.398;6.564;2024-03-17T00:58:34;13.03;;;10.73;;
53961;SDS011;39868;53.398;6.564;2024-03-17T01:01:01;9.73;;;8.93;;
53961;SDS011;39868;53.398;6.564;2024-03-17T01:03:27;8.53;;;7.93;;
53961;SDS011;39868;53.398;6.564;2024-03-17T01:05:53;9.07;;;8.17;;
53961;SDS011;39868;53.398;6.564;2024-03-17T01:08:20;11.90;;;10.50;;
53961;SDS011;39868;53.398;6.564;2024-03-17T01:10:47;13.97;;;10.57;;
53961;SDS011;39868;53.398;6.564;2024-03-17T01:13:17;33.33;;;16.77;;
53961;SDS011;39868;53.398;6.564;2024-03-17T01:15:43;39.53;;;18.03;;
53961;SDS011;39868;53.398;6.564;2024-03-17T01:18:10;36.57;;;17.03;;
53961;SDS011;39868;53.398;6.564;2024-03-17T01:20:36;20.80;;;12.37;;
53961;SDS011;39868;53.398;6.564;2024-03-17T01:23:03;19.20;;;10.10;;
53961;SDS011;39868;53.398;6.564;2024-03-17T01:25:30;12.10;;;9.30;;
53961;SDS011;39868;53.398;6.564;2024-03-17T01:28:01;9.23;;;8.03;;
53961;SDS011;39868;53.398;6.564;2024-03-17T01:30:28;10.23;;;8.30;;
53961;SDS011;39868;53.398;6.564;2024-03-17T01:32:54;7.60;;;7.10;;
53961;SDS011;39868;53.398;6.564;2024-03-17T01:35:21;7.77;;;7.20;;
53961;SDS011;39868;53.398;6.564;2024-03-17T01:37:48;7.47;;;6.90;;
53961;SDS011;39868;53.398;6.564;2024-03-17T01:40:14;7.50;;;6.90;;
53961;SDS011;39868;53.398;6.564;2024-03-17T01:42:41;7.43;;;6.93;;
53961;SDS011;39868;53.398;6.564;2024-03-17T01:47:43;7.10;;;6.53;;
53961;SDS011;39868;53.398;6.564;2024-03-17T01:50:09;7.00;;;6.60;;
53961;SDS011;39868;53.398;6.564;2024-03-17T01:52:38;7.53;;;6.93;;
53961;SDS011;39868;53.398;6.564;2024-03-17T01:55:05;7.10;;;6.60;;
53961;SDS011;39868;53.398;6.564;2024-03-17T01:57:32;7.23;;;6.83;;
53961;SDS011;39868;53.398;6.564;2024-03-17T01:59:59;6.67;;;6.30;;
53961;SDS011;39868;53.398;6.564;2024-03-17T02:02:25;7.40;;;6.90;;
53961;SDS011;39868;53.398;6.564;2024-03-17T02:04:51;6.70;;;6.20;;
53961;SDS011;39868;53.398;6.564;2024-03-17T02:07:18;7.07;;;6.57;;
53961;SDS011;39868;53.398;6.564;2024-03-17T02:09:44;7.60;;;7.07;;
53961;SDS011;39868;53.398;6.564;2024-03-17T02:12:10;7.77;;;7.07;;
53961;SDS011;39868;53.398;6.564;2024-03-17T02:14:37;7.80;;;7.40;;
53961;SDS011;39868;53.398;6.564;2024-03-17T02:17:04;7.20;;;6.77;;
53961;SDS011;39868;53.398;6.564;2024-03-17T02:19:30;7.10;;;6.60;;
53961;SDS011;39868;53.398;6.564;2024-03-17T02:21:56;8.00;;;7.50;;
53961;SDS011;39868;53.398;6.564;2024-03-17T02:24:22;7.30;;;6.80;;
53961;SDS011;39868;53.398;6.564;2024-03-17T02:26:49;7.23;;;6.73;;
53961;SDS011;39868;53.398;6.564;2024-03-17T02:29:15;7.03;;;6.63;;
53961;SDS011;39868;53.398;6.564;2024-03-17T02:31:41;7.57;;;7.17;;
53961;SDS011;39868;53.398;6.564;2024-03-17T02:34:07;7.00;;;6.53;;
53961;SDS011;39868;53.398;6.564;2024-03-17T02:36:33;7.00;;;6.70;;
53961;SDS011;39868;53.398;6.564;2024-03-17T02:38:59;6.93;;;6.53;;
53961;SDS011;39868;53.398;6.564;2024-03-17T02:41:44;7.60;;;7.00;;
53961;SDS011;39868;53.398;6.564;2024-03-17T02:44:11;7.10;;;6.70;;
53961;SDS011;39868;53.398;6.564;2024-03-17T02:46:37;7.60;;;7.07;;
53961;SDS011;39868;53.398;6.564;2024-03-17T02:49:04;7.50;;;6.90;;
53961;SDS011;39868;53.398;6.564;2024-03-17T02:51:30;7.13;;;6.73;;
53961;SDS011;39868;53.398;6.564;2024-03-17T02:53:56;7.63;;;7.13;;
53961;SDS011;39868;53.398;6.564;2024-03-17T02:56:25;7.33;;;6.83;;
53961;SDS011;39868;53.398;6.564;2024-03-17T02:58:51;7.20;;;6.80;;
53961;SDS011;39868;53.398;6.564;2024-03-17T03:01:19;7.27;;;6.87;;
53961;SDS011;39868;53.398;6.564;2024-03-17T03:03:45;7.13;;;6.67;;
53961;SDS011;39868;53.398;6.564;2024-03-17T03:06:13;6.87;;;6.47;;
53961;SDS011;39868;53.398;6.564;2024-03-17T03:08:40;7.60;;;6.97;;
53961;SDS011;39868;53.398;6.564;2024-03-17T03:11:08;7.37;;;6.97;;
53961;SDS011;39868;53.398;6.564;2024-03-17T03:13:40;6.80;;;6.40;;
53961;SDS011;39868;53.398;6.564;2024-03-17T03:16:09;7.83;;;7.30;;
53961;SDS011;39868;53.398;6.564;2024-03-17T03:18:37;7.23;;;6.90;;
53961;SDS011;39868;53.398;6.564;2024-03-17T03:21:04;6.97;;;6.57;;
53961;SDS011;39868;53.398;6.564;2024-03-17T03:23:31;7.03;;;6.50;;
53961;SDS011;39868;53.398;6.564;2024-03-17T03:25:58;6.97;;;6.37;;
53961;SDS011;39868;53.398;6.564;2024-03-17T03:28:26;7.37;;;6.87;;
53961;SDS011;39868;53.398;6.564;2024-03-17T03:30:52;6.80;;;6.30;;
53961;SDS011;39868;53.398;6.564;2024-03-17T03:33:19;6.70;;;6.20;;
53961;SDS011;39868;53.398;6.564;2024-03-17T03:35:46;7.50;;;7.10;;
53961;SDS011;39868;53.398;6.564;2024-03-17T03:38:12;6.63;;;6.30;;
53961;SDS011;39868;53.398;6.564;2024-03-17T03:40:40;7.07;;;6.57;;
53961;SDS011;39868;53.398;6.564;2024-03-17T03:43:10;7.10;;;6.60;;
53961;SDS011;39868;53.398;6.564;2024-03-17T03:45:36;7.53;;;7.07;;
53961;SDS011;39868;53.398;6.564;2024-03-17T03:48:03;9.43;;;6.63;;
53961;SDS011;39868;53.398;6.564;2024-03-17T03:50:30;7.87;;;7.37;;
53961;SDS011;39868;53.398;6.564;2024-03-17T03:52:57;8.10;;;7.47;;
53961;SDS011;39868;53.398;6.564;2024-03-17T03:55:23;6.73;;;6.33;;
53961;SDS011;39868;53.398;6.564;2024-03-17T03:57:49;7.20;;;6.80;;
53961;SDS011;39868;53.398;6.564;2024-03-17T04:00:18;7.90;;;7.20;;
53961;SDS011;39868;53.398;6.564;2024-03-17T04:02:50;8.03;;;7.07;;
53961;SDS011;39868;53.398;6.564;2024-03-17T04:05:17;6.87;;;6.47;;
53961;SDS011;39868;53.398;6.564;2024-03-17T04:07:45;7.60;;;6.90;;
53961;SDS011;39868;53.398;6.564;2024-03-17T04:10:14;7.00;;;6.60;;
53961;SDS011;39868;53.398;6.564;2024-03-17T04:12:41;7.30;;;6.83;;
53961;SDS011;39868;53.398;6.564;2024-03-17T04:15:08;7.30;;;6.90;;
53961;SDS011;39868;53.398;6.564;2024-03-17T04:17:36;7.00;;;6.60;;
53961;SDS011;39868;53.398;6.564;2024-03-17T04:20:03;6.93;;;6.53;;
53961;SDS011;39868;53.398;6.564;2024-03-17T04:22:34;7.37;;;6.97;;
53961;SDS011;39868;53.398;6.564;2024-03-17T04:25:01;7.60;;;6.93;;
53961;SDS011;39868;53.398;6.564;2024-03-17T04:27:29;6.50;;;6.20;;
53961;SDS011;39868;53.398;6.564;2024-03-17T04:29:56;7.27;;;6.80;;
53961;SDS011;39868;53.398;6.564;2024-03-17T04:32:24;7.43;;;7.03;;
53961;SDS011;39868;53.398;6.564;2024-03-17T04:34:52;6.67;;;6.27;;
53961;SDS011;39868;53.398;6.564;2024-03-17T04:37:18;7.50;;;6.93;;
53961;SDS011;39868;53.398;6.564;2024-03-17T04:39:45;7.30;;;6.70;;
53961;SDS011;39868;53.398;6.564;2024-03-17T04:42:12;7.27;;;6.87;;
53961;SDS011;39868;53.398;6.564;2024-03-17T04:44:43;6.90;;;6.50;;
53961;SDS011;39868;53.398;6.564;2024-03-17T04:47:10;7.17;;;6.77;;
53961;SDS011;39868;53.398;6.564;2024-03-17T04:49:37;7.87;;;7.37;;
53961;SDS011;39868;53.398;6.564;2024-03-17T04:52:04;7.27;;;6.80;;
53961;SDS011;39868;53.398;6.564;2024-03-17T04:54:31;7.47;;;6.90;;
53961;SDS011;39868;53.398;6.564;2024-03-17T04:56:57;7.83;;;7.20;;
53961;SDS011;39868;53.398;6.564;2024-03-17T04:59:24;7.83;;;7.23;;
53961;SDS011;39868;53.398;6.564;2024-03-17T05:01:50;7.50;;;7.00;;
53961;SDS011;39868;53.398;6.564;2024-03-17T05:04:17;7.13;;;6.73;;
53961;SDS011;39868;53.398;6.564;2024-03-17T05:06:43;7.63;;;7.03;;
53961;SDS011;39868;53.398;6.564;2024-03-17T05:09:13;7.33;;;6.73;;
53961;SDS011;39868;53.398;6.564;2024-03-17T05:11:42;7.27;;;6.80;;
53961;SDS011;39868;53.398;6.564;2024-03-17T05:14:08;7.33;;;6.83;;
53961;SDS011;39868;53.398;6.564;2024-03-17T05:16:35;6.67;;;6.27;;
53961;SDS011;39868;53.398;6.564;2024-03-17T05:19:01;7.30;;;6.80;;
53961;SDS011;39868;53.398;6.564;2024-03-17T05:21:29;6.87;;;6.47;;
53961;SDS011;39868;53.398;6.564;2024-03-17T05:23:56;7.63;;;7.23;;
53961;SDS011;39868;53.398;6.564;2024-03-17T05:26:25;6.90;;;6.50;;
53961;SDS011;39868;53.398;6.564;2024-03-17T05:28:52;6.90;;;6.60;;
53961;SDS011;39868;53.398;6.564;2024-03-17T05:31:19;7.17;;;6.77;;
53961;SDS011;39868;53.398;6.564;2024-03-17T05:33:47;7.70;;;7.10;;
53961;SDS011;39868;53.398;6.564;2024-03-17T05:36:14;7.40;;;6.90;;
53961;SDS011;39868;53.398;6.564;2024-03-17T05:38:40;7.23;;;6.77;;
53961;SDS011;39868;53.398;6.564;2024-03-17T05:41:07;6.80;;;6.50;;
53961;SDS011;39868;53.398;6.564;2024-03-17T05:43:37;7.17;;;6.57;;
53961;SDS011;39868;53.398;6.564;2024-03-17T05:46:05;6.37;;;6.00;;
53961;SDS011;39868;53.398;6.564;2024-03-17T05:48:33;7.13;;;6.80;;
53961;SDS011;39868;53.398;6.564;2024-03-17T05:51:02;6.50;;;6.20;;
53961;SDS011;39868;53.398;6.564;2024-03-17T05:53:29;6.63;;;6.23;;
53961;SDS011;39868;53.398;6.564;2024-03-17T05:56:00;6.70;;;6.27;;
53961;SDS011;39868;53.398;6.564;2024-03-17T05:58:28;6.57;;;6.17;;
53961;SDS011;39868;53.398;6.564;2024-03-17T06:00:54;6.70;;;6.30;;
53961;SDS011;39868;53.398;6.564;2024-03-17T06:03:20;7.07;;;6.53;;
53961;SDS011;39868;53.398;6.564;2024-03-17T06:05:47;6.27;;;5.87;;
53961;SDS011;39868;53.398;6.564;2024-03-17T06:08:14;6.00;;;5.60;;
53961;SDS011;39868;53.398;6.564;2024-03-17T06:10:44;6.83;;;6.37;;
53961;SDS011;39868;53.398;6.564;2024-03-17T06:13:14;6.73;;;6.33;;
53961;SDS011;39868;53.398;6.564;2024-03-17T06:15:45;6.47;;;5.93;;
53961;SDS011;39868;53.398;6.564;2024-03-17T06:18:14;6.45;;;6.05;;
53961;SDS011;39868;53.398;6.564;2024-03-17T06:20:46;6.57;;;6.17;;
53961;SDS011;39868;53.398;6.564;2024-03-17T06:23:13;6.60;;;6.10;;
53961;SDS011;39868;53.398;6.564;2024-03-17T06:25:47;6.83;;;6.33;;
53961;SDS011;39868;53.398;6.564;2024-03-17T06:28:14;6.37;;;6.00;;
53961;SDS011;39868;53.398;6.564;2024-03-17T06:30:42;7.00;;;6.50;;
53961;SDS011;39868;53.398;6.564;2024-03-17T06:33:12;6.70;;;6.30;;
53961;SDS011;39868;53.398;6.564;2024-03-17T06:35:39;6.57;;;6.17;;
53961;SDS011;39868;53.398;6.564;2024-03-17T06:38:06;7.33;;;6.80;;
53961;SDS011;39868;53.398;6.564;2024-03-17T06:40:39;7.33;;;6.73;;
53961;SDS011;39868;53.398;6.564;2024-03-17T06:43:05;6.80;;;6.40;;
53961;SDS011;39868;53.398;6.564;2024-03-17T06:45:32;6.90;;;6.60;;
53961;SDS011;39868;53.398;6.564;2024-03-17T06:47:58;6.90;;;6.50;;
53961;SDS011;39868;53.398;6.564;2024-03-17T06:50:24;6.93;;;6.53;;
53961;SDS011;39868;53.398;6.564;2024-03-17T06:52:51;7.40;;;7.00;;
53961;SDS011;39868;53.398;6.564;2024-03-17T06:55:19;8.07;;;7.47;;
53961;SDS011;39868;53.398;6.564;2024-03-17T06:57:50;8.03;;;7.33;;
53961;SDS011;39868;53.398;6.564;2024-03-17T07:00:16;7.03;;;6.67;;
53961;SDS011;39868;53.398;6.564;2024-03-17T07:02:43;7.93;;;7.18;;
53961;SDS011;39868;53.398;6.564;2024-03-17T07:05:13;7.30;;;6.80;;
53961;SDS011;39868;53.398;6.564;2024-03-17T07:07:43;7.90;;;7.30;;
53961;SDS011;39868;53.398;6.564;2024-03-17T07:10:10;6.80;;;6.40;;
53961;SDS011;39868;53.398;6.564;2024-03-17T07:12:40;7.85;;;7.35;;
53961;SDS011;39868;53.398;6.564;2024-03-17T07:15:07;7.20;;;6.80;;
53961;SDS011;39868;53.398;6.564;2024-03-17T07:17:34;8.02;;;7.55;;
53961;SDS011;39868;53.398;6.564;2024-03-17T07:20:00;7.68;;;6.97;;
53961;SDS011;39868;53.398;6.564;2024-03-17T07:22:27;7.68;;;7.10;;
53961;SDS011;39868;53.398;6.564;2024-03-17T07:24:53;7.75;;;7.25;;
53961;SDS011;39868;53.398;6.564;2024-03-17T07:27:22;7.80;;;7.30;;
53961;SDS011;39868;53.398;6.564;2024-03-17T07:29:49;7.53;;;7.13;;
53961;SDS011;39868;53.398;6.564;2024-03-17T07:32:15;7.65;;;7.15;;
53961;SDS011;39868;53.398;6.564;2024-03-17T07:34:41;8.10;;;7.43;;
53961;SDS011;39868;53.398;6.564;2024-03-17T07:37:07;7.78;;;7.18;;
53961;SDS011;39868;53.398;6.564;2024-03-17T07:39:34;7.55;;;7.05;;
53961;SDS011;39868;53.398;6.564;2024-03-17T07:42:01;7.55;;;7.03;;
53961;SDS011;39868;53.398;6.564;2024-03-17T07:44:28;7.60;;;7.03;;
53961;SDS011;39868;53.398;6.564;2024-03-17T07:46:59;7.60;;;7.18;;
53961;SDS011;39868;53.398;6.564;2024-03-17T07:49:26;8.02;;;7.40;;
53961;SDS011;39868;53.398;6.564;2024-03-17T07:51:53;7.75;;;7.25;;
53961;SDS011;39868;53.398;6.564;2024-03-17T07:54:19;8.25;;;7.65;;
53961;SDS011;39868;53.398;6.564;2024-03-17T07:56:46;8.00;;;7.50;;
53961;SDS011;39868;53.398;6.564;2024-03-17T07:59:12;7.95;;;7.38;;
53961;SDS011;39868;53.398;6.564;2024-03-17T08:01:42;8.00;;;7.38;;
53961;SDS011;39868;53.398;6.564;2024-03-17T08:04:08;8.43;;;7.65;;
53961;SDS011;39868;53.398;6.564;2024-03-17T08:06:40;7.72;;;7.32;;
53961;SDS011;39868;53.398;6.564;2024-03-17T08:09:08;7.90;;;7.50;;
53961;SDS011;39868;53.398;6.564;2024-03-17T08:11:37;8.20;;;7.70;;
53961;SDS011;39868;53.398;6.564;2024-03-17T08:14:04;7.95;;;7.45;;
53961;SDS011;39868;53.398;6.564;2024-03-17T08:16:31;7.97;;;7.50;;
53961;SDS011;39868;53.398;6.564;2024-03-17T08:18:57;7.45;;;7.07;;
53961;SDS011;39868;53.398;6.564;2024-03-17T08:21:24;7.65;;;7.25;;
53961;SDS011;39868;53.398;6.564;2024-03-17T08:23:50;7.85;;;7.28;;
53961;SDS011;39868;53.398;6.564;2024-03-17T08:26:17;8.25;;;7.68;;
53961;SDS011;39868;53.398;6.564;2024-03-17T08:28:44;8.13;;;7.40;;
53961;SDS011;39868;53.398;6.564;2024-03-17T08:31:12;8.13;;;7.60;;
53961;SDS011;39868;53.398;6.564;2024-03-17T08:33:38;8.65;;;7.80;;
53961;SDS011;39868;53.398;6.564;2024-03-17T08:36:05;8.23;;;7.45;;
53961;SDS011;39868;53.398;6.564;2024-03-17T08:38:33;7.97;;;7.50;;
53961;SDS011;39868;53.398;6.564;2024-03-17T08:41:04;8.25;;;7.75;;
53961;SDS011;39868;53.398;6.564;2024-03-17T08:43:31;8.10;;;7.70;;
53961;SDS011;39868;53.398;6.564;2024-03-17T08:46:02;8.38;;;7.63;;
53961;SDS011;39868;53.398;6.564;2024-03-17T08:48:31;7.70;;;7.20;;
53961;SDS011;39868;53.398;6.564;2024-03-17T08:50:59;8.32;;;7.72;;
53961;SDS011;39868;53.398;6.564;2024-03-17T08:53:29;7.85;;;7.45;;
53961;SDS011;39868;53.398;6.564;2024-03-17T08:55:56;8.02;;;7.25;;
53961;SDS011;39868;53.398;6.564;2024-03-17T08:58:24;7.90;;;7.20;;
53961;SDS011;39868;53.398;6.564;2024-03-17T09:00:50;7.50;;;7.20;;
53961;SDS011;39868;53.398;6.564;2024-03-17T09:03:17;8.57;;;7.85;;
53961;SDS011;39868;53.398;6.564;2024-03-17T09:05:46;8.52;;;7.88;;
53961;SDS011;39868;53.398;6.564;2024-03-17T09:08:20;7.90;;;7.50;;
53961;SDS011;39868;53.398;6.564;2024-03-17T09:10:48;8.10;;;7.60;;
53961;SDS011;39868;53.398;6.564;2024-03-17T09:13:16;8.13;;;7.60;;
53961;SDS011;39868;53.398;6.564;2024-03-17T09:15:50;7.95;;;7.50;;
53961;SDS011;39868;53.398;6.564;2024-03-17T09:18:22;8.18;;;7.78;;
53961;SDS011;39868;53.398;6.564;2024-03-17T09:21:22;8.20;;;7.63;;
53961;SDS011;39868;53.398;6.564;2024-03-17T09:23:43;8.40;;;7.97;;
53961;SDS011;39868;53.398;6.564;2024-03-17T09:26:09;8.93;;;8.43;;
53961;SDS011;39868;53.398;6.564;2024-03-17T09:28:41;8.77;;;8.13;;
53961;SDS011;39868;53.398;6.564;2024-03-17T09:31:08;8.88;;;8.15;;
53961;SDS011;39868;53.398;6.564;2024-03-17T09:33:35;9.00;;;8.32;;
53961;SDS011;39868;53.398;6.564;2024-03-17T09:36:05;8.70;;;8.20;;
53961;SDS011;39868;53.398;6.564;2024-03-17T09:38:33;8.77;;;8.27;;
53961;SDS011;39868;53.398;6.564;2024-03-17T09:41:00;9.27;;;8.63;;
53961;SDS011;39868;53.398;6.564;2024-03-17T09:43:27;9.15;;;8.40;;
53961;SDS011;39868;53.398;6.564;2024-03-17T09:45:54;9.60;;;8.93;;
53961;SDS011;39868;53.398;6.564;2024-03-17T09:48:24;8.98;;;8.48;;
53961;SDS011;39868;53.398;6.564;2024-03-17T09:50:53;9.25;;;8.60;;
53961;SDS011;39868;53.398;6.564;2024-03-17T09:53:25;8.77;;;8.27;;
53961;SDS011;39868;53.398;6.564;2024-03-17T09:55:57;8.73;;;8.23;;
53961;SDS011;39868;53.398;6.564;2024-03-17T09:58:24;9.68;;;8.75;;
53961;SDS011;39868;53.398;6.564;2024-03-17T10:00:50;9.60;;;8.80;;
53961;SDS011;39868;53.398;6.564;2024-03-17T10:06:20;9.02;;;8.43;;
53961;SDS011;39868;53.398;6.564;2024-03-17T10:08:52;9.27;;;8.57;;
53961;SDS011;39868;53.398;6.564;2024-03-17T10:11:23;9.77;;;8.98;;
53961;SDS011;39868;53.398;6.564;2024-03-17T10:14:01;9.30;;;8.70;;
53961;SDS011;39868;53.398;6.564;2024-03-17T10:16:29;9.32;;;8.82;;
53961;SDS011;39868;53.398;6.564;2024-03-17T10:19:09;10.07;;;9.15;;
53961;SDS011;39868;53.398;6.564;2024-03-17T10:21:42;10.02;;;9.27;;
53961;SDS011;39868;53.398;6.564;2024-03-17T10:24:24;9.32;;;8.82;;
53961;SDS011;39868;53.398;6.564;2024-03-17T10:26:57;8.98;;;8.57;;
53961;SDS011;39868;53.398;6.564;2024-03-17T10:31:56;10.15;;;9.40;;
53961;SDS011;39868;53.398;6.564;2024-03-17T10:34:25;10.65;;;9.63;;
53961;SDS011;39868;53.398;6.564;2024-03-17T10:37:05;10.50;;;9.48;;
53961;SDS011;39868;53.398;6.564;2024-03-17T10:39:43;10.20;;;9.55;;
53961;SDS011;39868;53.398;6.564;2024-03-17T10:42:10;10.15;;;9.45;;
53961;SDS011;39868;53.398;6.564;2024-03-17T10:44:40;10.88;;;10.10;;
53961;SDS011;39868;53.398;6.564;2024-03-17T10:47:29;11.50;;;10.38;;
53961;SDS011;39868;53.398;6.564;2024-03-17T10:49:55;11.00;;;10.20;;
53961;SDS011;39868;53.398;6.564;2024-03-17T10:52:22;10.90;;;10.20;;
53961;SDS011;39868;53.398;6.564;2024-03-17T10:54:53;11.27;;;10.37;;
53961;SDS011;39868;53.398;6.564;2024-03-17T10:59:57;10.65;;;9.85;;
53961;SDS011;39868;53.398;6.564;2024-03-17T11:02:28;11.15;;;10.30;;
53961;SDS011;39868;53.398;6.564;2024-03-17T11:05:00;12.20;;;10.45;;
53961;SDS011;39868;53.398;6.564;2024-03-17T11:07:31;11.57;;;10.57;;
53961;SDS011;39868;53.398;6.564;2024-03-17T11:10:02;11.80;;;10.70;;
53961;SDS011;39868;53.398;6.564;2024-03-17T11:17:54;11.80;;;10.90;;
53961;SDS011;39868;53.398;6.564;2024-03-17T11:20:36;12.13;;;11.15;;
53961;SDS011;39868;53.398;6.564;2024-03-17T11:23:05;12.15;;;11.20;;
53961;SDS011;39868;53.398;6.564;2024-03-17T11:28:01;13.20;;;11.88;;
53961;SDS011;39868;53.398;6.564;2024-03-17T11:39:02;12.52;;;11.52;;
53961;SDS011;39868;53.398;6.564;2024-03-17T11:41:41;12.43;;;11.40;;
53961;SDS011;39868;53.398;6.564;2024-03-17T11:46:55;12.07;;;11.27;;
53961;SDS011;39868;53.398;6.564;2024-03-17T11:49:26;12.30;;;11.40;;
53961;SDS011;39868;53.398;6.564;2024-03-17T11:51:54;12.35;;;11.30;;
53961;SDS011;39868;53.398;6.564;2024-03-17T11:54:37;12.48;;;11.32;;
53961;SDS011;39868;53.398;6.564;2024-03-17T11:57:09;12.70;;;11.77;;
53961;SDS011;39868;53.398;6.564;2024-03-17T11:59:36;12.10;;;11.20;;
53961;SDS011;39868;53.398;6.564;2024-03-17T12:04:50;11.63;;;10.75;;
53961;SDS011;39868;53.398;6.564;2024-03-17T12:07:19;11.90;;;11.18;;
53961;SDS011;39868;53.398;6.564;2024-03-17T12:09:52;12.38;;;11.65;;
53961;SDS011;39868;53.398;6.564;2024-03-17T12:14:46;14.07;;;12.93;;
53961;SDS011;39868;53.398;6.564;2024-03-17T12:17:15;13.10;;;12.30;;
53961;SDS011;39868;53.398;6.564;2024-03-17T12:19:47;13.50;;;12.50;;
53961;SDS011;39868;53.398;6.564;2024-03-17T12:22:20;13.18;;;12.20;;
53961;SDS011;39868;53.398;6.564;2024-03-17T12:24:52;13.13;;;12.20;;
53961;SDS011;39868;53.398;6.564;2024-03-17T12:27:19;13.07;;;12.10;;
53961;SDS011;39868;53.398;6.564;2024-03-17T12:29:47;14.30;;;13.07;;
53961;SDS011;39868;53.398;6.564;2024-03-17T12:32:25;13.55;;;12.65;;
53961;SDS011;39868;53.398;6.564;2024-03-17T12:34:52;13.27;;;12.23;;
53961;SDS011;39868;53.398;6.564;2024-03-17T12:37:20;14.30;;;12.95;;
53961;SDS011;39868;53.398;6.564;2024-03-17T12:39:46;13.65;;;12.65;;
53961;SDS011;39868;53.398;6.564;2024-03-17T12:42:16;13.38;;;12.25;;
53961;SDS011;39868;53.398;6.564;2024-03-17T12:44:49;12.88;;;12.00;;
53961;SDS011;39868;53.398;6.564;2024-03-17T12:47:17;13.45;;;12.35;;
53961;SDS011;39868;53.398;6.564;2024-03-17T12:52:21;13.70;;;12.60;;
53961;SDS011;39868;53.398;6.564;2024-03-17T12:55:01;14.15;;;12.95;;
53961;SDS011;39868;53.398;6.564;2024-03-17T12:57:53;14.05;;;12.73;;
53961;SDS011;39868;53.398;6.564;2024-03-17T13:00:59;14.68;;;13.32;;
53961;SDS011;39868;53.398;6.564;2024-03-17T13:03:34;14.35;;;13.25;;
53961;SDS011;39868;53.398;6.564;2024-03-17T13:06:05;14.95;;;13.55;;
53961;SDS011;39868;53.398;6.564;2024-03-17T13:08:35;15.43;;;14.10;;
53961;SDS011;39868;53.398;6.564;2024-03-17T13:11:02;15.07;;;13.88;;
53961;SDS011;39868;53.398;6.564;2024-03-17T13:13:31;15.13;;;13.65;;
53961;SDS011;39868;53.398;6.564;2024-03-17T13:15:57;14.68;;;13.38;;
53961;SDS011;39868;53.398;6.564;2024-03-17T13:18:24;15.27;;;13.77;;
53961;SDS011;39868;53.398;6.564;2024-03-17T13:20:50;14.23;;;13.00;;
53961;SDS011;39868;53.398;6.564;2024-03-17T13:23:18;14.43;;;13.25;;
53961;SDS011;39868;53.398;6.564;2024-03-17T13:25:47;14.30;;;13.07;;
53961;SDS011;39868;53.398;6.564;2024-03-17T13:28:13;14.68;;;13.23;;
53961;SDS011;39868;53.398;6.564;2024-03-17T13:30:40;14.90;;;13.60;;
53961;SDS011;39868;53.398;6.564;2024-03-17T13:33:07;13.32;;;12.20;;
53961;SDS011;39868;53.398;6.564;2024-03-17T13:35:38;13.57;;;12.32;;
53961;SDS011;39868;53.398;6.564;2024-03-17T13:38:06;12.35;;;11.45;;
53961;SDS011;39868;53.398;6.564;2024-03-17T13:40:33;13.40;;;12.20;;
53961;SDS011;39868;53.398;6.564;2024-03-17T13:43:00;13.10;;;11.90;;
53961;SDS011;39868;53.398;6.564;2024-03-17T13:45:27;13.13;;;12.13;;
53961;SDS011;39868;53.398;6.564;2024-03-17T13:48:01;12.77;;;11.48;;
53961;SDS011;39868;53.398;6.564;2024-03-17T13:50:36;12.93;;;11.73;;
53961;SDS011;39868;53.398;6.564;2024-03-17T13:53:07;12.63;;;11.63;;
53961;SDS011;39868;53.398;6.564;2024-03-17T13:55:34;13.57;;;12.38;;
53961;SDS011;39868;53.398;6.564;2024-03-17T13:58:01;13.18;;;11.98;;
53961;SDS011;39868;53.398;6.564;2024-03-17T14:00:27;13.18;;;11.98;;
53961;SDS011;39868;53.398;6.564;2024-03-17T14:02:55;14.60;;;12.77;;
53961;SDS011;39868;53.398;6.564;2024-03-17T14:05:22;13.73;;;12.40;;
53961;SDS011;39868;53.398;6.564;2024-03-17T14:07:49;13.48;;;12.10;;
53961;SDS011;39868;53.398;6.564;2024-03-17T14:10:18;15.48;;;12.15;;
53961;SDS011;39868;53.398;6.564;2024-03-17T14:12:45;14.07;;;12.73;;
53961;SDS011;39868;53.398;6.564;2024-03-17T14:15:13;13.30;;;12.15;;
53961;SDS011;39868;53.398;6.564;2024-03-17T14:17:41;13.60;;;12.30;;
53961;SDS011;39868;53.398;6.564;2024-03-17T14:20:08;12.85;;;11.40;;
53961;SDS011;39868;53.398;6.564;2024-03-17T14:22:36;12.65;;;11.38;;
53961;SDS011;39868;53.398;6.564;2024-03-17T14:25:04;13.95;;;12.63;;
53961;SDS011;39868;53.398;6.564;2024-03-17T14:27:31;13.15;;;12.02;;
53961;SDS011;39868;53.398;6.564;2024-03-17T14:29:57;13.05;;;12.02;;
53961;SDS011;39868;53.398;6.564;2024-03-17T14:32:23;12.70;;;11.23;;
53961;SDS011;39868;53.398;6.564;2024-03-17T14:34:50;12.13;;;11.02;;
53961;SDS011;39868;53.398;6.564;2024-03-17T14:37:16;11.38;;;10.45;;
53961;SDS011;39868;53.398;6.564;2024-03-17T14:39:42;11.77;;;10.80;;
53961;SDS011;39868;53.398;6.564;2024-03-17T14:42:09;12.65;;;11.55;;
53961;SDS011;39868;53.398;6.564;2024-03-17T14:44:36;12.10;;;11.07;;
53961;SDS011;39868;53.398;6.564;2024-03-17T14:47:02;12.43;;;11.38;;
53961;SDS011;39868;53.398;6.564;2024-03-17T14:49:32;12.10;;;11.20;;
53961;SDS011;39868;53.398;6.564;2024-03-17T14:51:59;11.73;;;10.75;;
53961;SDS011;39868;53.398;6.564;2024-03-17T14:54:25;12.45;;;11.30;;
53961;SDS011;39868;53.398;6.564;2024-03-17T14:56:53;12.25;;;11.00;;
53961;SDS011;39868;53.398;6.564;2024-03-17T14:59:19;12.60;;;11.48;;
53961;SDS011;39868;53.398;6.564;2024-03-17T15:01:46;11.55;;;10.55;;
53961;SDS011;39868;53.398;6.564;2024-03-17T15:04:13;11.98;;;10.77;;
53961;SDS011;39868;53.398;6.564;2024-03-17T15:06:42;13.27;;;12.07;;
53961;SDS011;39868;53.398;6.564;2024-03-17T15:09:09;12.38;;;11.23;;
53961;SDS011;39868;53.398;6.564;2024-03-17T15:11:35;11.85;;;10.85;;
53961;SDS011;39868;53.398;6.564;2024-03-17T15:14:01;12.18;;;11.07;;
53961;SDS011;39868;53.398;6.564;2024-03-17T15:16:29;11.85;;;10.82;;
53961;SDS011;39868;53.398;6.564;2024-03-17T15:18:56;11.93;;;11.00;;
53961;SDS011;39868;53.398;6.564;2024-03-17T15:21:23;12.32;;;11.25;;
53961;SDS011;39868;53.398;6.564;2024-03-17T15:23:49;12.35;;;11.25;;